Millinocket, Maine
Current Conditions -  °F | °C
As of 1:53 AM on Sunday 23 Nov 2014 (Local Time) from KMLT Reporting Station
Overcast Overcast  
Wind Chill: -2°   Ceiling: 2400
Heat Index:   Visibility: 10mi
Dew Point: -7°   Wind: 5mph
Humidity: 56%   Direction: NA
Pressure: 29.88"   Gusts: NA
Location:  45.66°N, 68.71°W
Report Text: KMLT 230653Z AUTO VRB04KT 10SM OVC024 01/M07 A2988 RMK AO2 SLP127 T00061072
Loading
Personal Weather Stations






























Interactive Weather Map New forecast layout! Learn more

10-Day Weather Forecast

Advertisements
Track Severe Weather on mobile